createdAt,value
2017-09-18T00:01:51.340Z,37.13
2017-09-18T00:04:17.657Z,36.80
2017-09-18T00:06:44.056Z,30.63
2017-09-18T00:09:10.413Z,42.30
2017-09-18T00:11:36.772Z,33.57
2017-09-18T00:14:03.106Z,34.50
2017-09-18T00:16:29.506Z,41.23
2017-09-18T00:18:56.102Z,38.13
2017-09-18T00:21:23.163Z,30.47
2017-09-18T00:23:49.412Z,27.17
2017-09-18T00:26:15.776Z,33.20
2017-09-18T00:28:42.091Z,46.53
2017-09-18T00:31:08.450Z,41.10
2017-09-18T00:33:34.788Z,45.70
2017-09-18T00:36:01.860Z,35.10
2017-09-18T00:38:28.997Z,40.40
2017-09-18T00:40:56.197Z,46.57
2017-09-18T00:43:22.612Z,41.67
2017-09-18T00:45:49.066Z,28.07
2017-09-18T00:48:15.388Z,37.87
2017-09-18T00:50:41.767Z,31.73
2017-09-18T00:53:08.140Z,32.37
2017-09-18T00:55:34.467Z,31.43
2017-09-18T00:58:00.750Z,26.40
2017-09-18T01:00:27.121Z,29.70
2017-09-18T01:02:53.529Z,20.57
2017-09-18T01:05:20.076Z,21.73
2017-09-18T01:07:47.398Z,22.70
2017-09-18T01:10:13.701Z,22.80
2017-09-18T01:12:40.051Z,22.20
2017-09-18T01:15:06.510Z,28.83
2017-09-18T01:17:32.907Z,21.57
2017-09-18T01:19:59.228Z,33.63
2017-09-18T01:22:25.577Z,25.03
2017-09-18T01:24:51.925Z,32.47
2017-09-18T01:27:18.374Z,40.00
2017-09-18T01:29:44.668Z,35.73
2017-09-18T01:32:11.045Z,38.03
2017-09-18T01:34:38.123Z,28.27
2017-09-18T01:37:04.715Z,28.20
2017-09-18T01:39:31.186Z,24.87
2017-09-18T01:41:57.617Z,35.93
2017-09-18T01:44:23.908Z,20.97
2017-09-18T01:46:50.235Z,20.10
2017-09-18T01:49:16.589Z,19.63
2017-09-18T01:51:42.972Z,25.70
2017-09-18T01:54:09.229Z,26.00
2017-09-18T01:56:35.527Z,27.63
2017-09-18T01:59:01.816Z,23.73
2017-09-18T02:01:28.932Z,29.70
2017-09-18T02:03:55.315Z,30.90
2017-09-18T02:06:21.946Z,34.20
2017-09-18T02:08:49.083Z,32.50
2017-09-18T02:11:15.364Z,35.67
2017-09-18T02:13:41.613Z,36.43
2017-09-18T02:16:07.956Z,41.53
2017-09-18T02:18:34.896Z,31.77
2017-09-18T02:21:01.253Z,38.70
2017-09-18T02:23:27.564Z,28.50
2017-09-18T02:25:53.857Z,35.43
2017-09-18T02:28:20.195Z,35.73
2017-09-18T02:30:46.538Z,33.03
2017-09-18T02:33:12.984Z,31.77
2017-09-18T02:35:39.394Z,39.53
2017-09-18T02:38:05.786Z,36.93
2017-09-18T02:40:32.923Z,31.83
2017-09-18T02:43:00.150Z,29.23
2017-09-18T02:45:26.553Z,19.07
2017-09-18T02:47:52.956Z,23.80
2017-09-18T02:50:20.036Z,13.30
2017-09-18T02:52:46.411Z,20.50
2017-09-18T02:55:12.749Z,14.20
2017-09-18T02:57:39.123Z,15.70
2017-09-18T03:00:05.486Z,24.03
2017-09-18T03:02:31.847Z,17.93
2017-09-18T03:04:58.659Z,16.07
2017-09-18T03:07:25.169Z,20.33
2017-09-18T03:09:51.485Z,26.83
2017-09-18T03:12:18.637Z,35.80
2017-09-18T03:14:45.691Z,25.07
2017-09-18T03:17:12.085Z,29.30
2017-09-18T03:19:38.376Z,23.10
2017-09-18T03:22:04.970Z,33.13
2017-09-18T03:24:32.097Z,28.50
2017-09-18T03:26:58.704Z,25.37
2017-09-18T03:29:25.047Z,28.43
2017-09-18T03:31:51.337Z,27.40
2017-09-18T03:34:18.381Z,22.47
2017-09-18T03:36:45.471Z,39.90
2017-09-18T03:39:11.774Z,27.70
2017-09-18T03:41:38.149Z,26.47
2017-09-18T03:44:04.531Z,25.40
2017-09-18T03:46:30.901Z,24.60
2017-09-18T03:48:57.192Z,23.67
2017-09-18T03:51:23.504Z,18.83
2017-09-18T03:53:49.901Z,15.70
2017-09-18T03:56:16.260Z,16.63
2017-09-18T03:58:42.700Z,18.73
2017-09-18T04:01:09.847Z,21.50
2017-09-18T04:03:36.146Z,19.87
2017-09-18T04:06:02.482Z,19.03
2017-09-18T04:08:28.785Z,29.30
2017-09-18T04:10:55.891Z,25.90
2017-09-18T04:13:22.965Z,26.13
2017-09-18T04:15:49.322Z,18.30
2017-09-18T04:18:15.746Z,19.60
2017-09-18T04:20:42.101Z,19.37
2017-09-18T04:23:08.414Z,17.07
2017-09-18T04:25:34.900Z,21.80
2017-09-18T04:28:01.232Z,29.33
2017-09-18T04:30:27.587Z,27.97
2017-09-18T04:32:54.138Z,22.70
2017-09-18T04:35:20.497Z,24.73
2017-09-18T04:37:47.038Z,32.80
2017-09-18T04:40:13.369Z,31.90
2017-09-18T04:42:39.786Z,23.60
2017-09-18T04:45:06.074Z,29.03
2017-09-18T04:47:32.428Z,34.43
2017-09-18T04:49:58.821Z,30.83
2017-09-18T04:52:25.127Z,29.10
2017-09-18T04:54:51.741Z,21.90
2017-09-18T04:57:18.164Z,26.70
2017-09-18T04:59:44.500Z,23.07
2017-09-18T05:02:10.795Z,28.83
2017-09-18T05:04:37.875Z,25.73
2017-09-18T05:07:04.211Z,23.43
2017-09-18T05:09:30.640Z,24.40
2017-09-18T05:11:56.940Z,20.63
2017-09-18T05:14:23.297Z,26.20
2017-09-18T05:16:49.673Z,15.83
2017-09-18T05:19:15.995Z,29.70
2017-09-18T05:21:42.407Z,32.60
2017-09-18T05:24:08.820Z,32.87
2017-09-18T05:26:35.897Z,46.00
2017-09-18T05:29:02.336Z,49.47
2017-09-18T05:31:28.690Z,44.20
2017-09-18T05:33:55.033Z,45.20
2017-09-18T05:36:21.414Z,43.07
2017-09-18T05:38:47.766Z,38.00
2017-09-18T05:41:14.126Z,31.03
2017-09-18T05:43:40.481Z,28.70
2017-09-18T05:46:07.126Z,39.93
2017-09-18T05:48:33.520Z,46.67
2017-09-18T05:50:59.883Z,52.23
2017-09-18T05:53:27.104Z,40.40
2017-09-18T05:55:53.470Z,37.27
2017-09-18T05:58:20.498Z,42.13
2017-09-18T06:00:46.943Z,49.80
2017-09-18T06:03:13.356Z,32.53
2017-09-18T06:05:39.743Z,40.20
2017-09-18T06:08:06.122Z,55.73
2017-09-18T06:10:32.445Z,41.83
2017-09-18T06:12:58.853Z,35.93
2017-09-18T06:15:25.288Z,46.53
2017-09-18T06:17:51.684Z,37.93
2017-09-18T06:20:18.022Z,25.63
2017-09-18T06:22:45.092Z,51.33
2017-09-18T06:25:11.453Z,39.23
2017-09-18T06:27:37.857Z,65.83
2017-09-18T06:30:04.155Z,59.40
2017-09-18T06:32:30.591Z,71.17
2017-09-18T06:34:57.661Z,85.40
2017-09-18T06:37:23.952Z,70.20
2017-09-18T06:39:50.316Z,119.90
2017-09-18T06:42:17.849Z,521.00
2017-09-18T06:44:44.418Z,384.47
2017-09-18T06:47:11.440Z,247.77
2017-09-18T06:49:37.768Z,674.00
2017-09-18T06:52:04.151Z,377.33
2017-09-18T06:54:30.510Z,921.30
2017-09-18T06:56:56.827Z,223.23
2017-09-18T06:59:23.211Z,26.13
2017-09-18T07:01:50.281Z,14.70
2017-09-18T07:04:16.513Z,19.40
2017-09-18T07:06:44.569Z,213.83
2017-09-18T07:09:11.613Z,6.40
2017-09-18T07:11:37.831Z,17.63
2017-09-18T07:14:04.153Z,13.70
2017-09-18T07:16:30.487Z,12.03
2017-09-18T07:18:57.226Z,14.77
2017-09-18T07:21:23.461Z,14.20
2017-09-18T07:23:49.699Z,17.43
2017-09-18T07:26:16.130Z,12.40
2017-09-18T07:28:42.452Z,16.93
2017-09-18T07:31:08.854Z,14.80
2017-09-18T07:33:35.128Z,9.43
2017-09-18T07:36:02.203Z,10.30
2017-09-18T07:38:29.213Z,9.17
2017-09-18T07:40:55.555Z,5.40
2017-09-18T07:43:22.554Z,4.97
2017-09-18T07:45:48.957Z,6.57
2017-09-18T07:48:15.983Z,3.70
2017-09-18T07:50:42.256Z,2.87
2017-09-18T07:53:08.487Z,4.50
2017-09-18T07:55:34.781Z,1.73
2017-09-18T07:58:01.113Z,4.00
2017-09-18T08:00:28.114Z,1.43
2017-09-18T08:02:54.411Z,1.37
2017-09-18T08:05:20.722Z,2.73
2017-09-18T08:07:48.023Z,1.30
2017-09-18T08:10:14.317Z,1.70
2017-09-18T08:12:41.397Z,2.87
2017-09-18T08:15:07.628Z,1.17
2017-09-18T08:17:33.911Z,1.23
2017-09-18T08:20:00.164Z,1.17
2017-09-18T08:22:26.408Z,1.47
2017-09-18T08:24:52.659Z,1.30
2017-09-18T08:27:18.962Z,1.10
2017-09-18T08:29:45.314Z,1.40
2017-09-18T08:32:11.544Z,1.00
2017-09-18T08:34:37.847Z,0.90
2017-09-18T08:37:04.904Z,0.80
2017-09-18T08:39:31.240Z,0.90
2017-09-18T08:41:57.733Z,0.70
2017-09-18T08:44:24.109Z,1.03
2017-09-18T08:46:50.435Z,1.30
2017-09-18T08:49:16.802Z,1.33
2017-09-18T08:51:43.099Z,1.10
2017-09-18T08:54:09.430Z,1.00
2017-09-18T08:56:36.183Z,0.80
2017-09-18T08:59:02.530Z,1.00
2017-09-18T09:01:29.050Z,1.00
2017-09-18T09:03:56.319Z,0.83
2017-09-18T09:06:23.779Z,2.20
2017-09-18T09:08:50.499Z,2.40
2017-09-18T09:11:17.718Z,1.00
2017-09-18T09:13:44.815Z,0.70
2017-09-18T09:16:11.094Z,1.90
2017-09-18T09:18:38.933Z,0.83
2017-09-18T09:21:05.332Z,1.70
2017-09-18T09:23:31.586Z,1.13
2017-09-18T09:25:58.155Z,3.50
2017-09-18T09:28:25.203Z,0.60
2017-09-18T09:30:52.490Z,0.67
2017-09-18T09:33:18.829Z,0.50
2017-09-18T09:35:45.105Z,1.47
2017-09-18T09:38:11.528Z,0.70
2017-09-18T09:40:37.831Z,0.90
2017-09-18T09:43:04.131Z,1.00
2017-09-18T09:45:30.349Z,0.70
2017-09-18T09:47:58.031Z,0.80
2017-09-18T09:50:24.394Z,0.80
2017-09-18T09:52:50.957Z,1.80
2017-09-18T09:55:18.359Z,0.70
2017-09-18T09:57:44.813Z,0.90
2017-09-18T10:00:11.226Z,0.70
2017-09-18T10:02:37.548Z,0.70
2017-09-18T10:05:03.910Z,0.80
2017-09-18T10:07:30.347Z,0.63
2017-09-18T10:09:56.807Z,0.80
2017-09-18T10:12:23.571Z,0.70
2017-09-18T10:14:50.858Z,0.67
2017-09-18T10:17:18.394Z,1.00
2017-09-18T10:19:44.777Z,1.30
2017-09-18T10:22:12.499Z,1.17
2017-09-18T10:24:39.028Z,0.90
2017-09-18T10:30:11.406Z,1.00
2017-09-18T10:35:26.908Z,1.20
2017-09-18T10:40:43.966Z,1.30
2017-09-18T10:43:33.385Z,1.30
2017-09-18T10:46:01.473Z,1.13
2017-09-18T10:48:30.095Z,1.57
2017-09-18T10:50:56.594Z,2.07
2017-09-18T10:53:32.377Z,1.50
2017-09-18T10:56:11.830Z,1.63
2017-09-18T10:58:50.051Z,1.27
2017-09-18T11:01:23.983Z,2.10
2017-09-18T11:03:50.559Z,2.43
2017-09-18T11:09:14.150Z,2.30
2017-09-18T11:11:55.363Z,1.80
2017-09-18T11:14:22.088Z,2.07
2017-09-18T11:16:49.315Z,2.73
2017-09-18T11:19:15.750Z,2.40
2017-09-18T11:21:42.279Z,2.37
2017-09-18T11:24:11.682Z,2.17
2017-09-18T11:32:46.727Z,2.77
2017-09-18T11:35:14.417Z,4.40
2017-09-18T11:37:40.918Z,4.17
2017-09-18T11:42:40.101Z,3.20
2017-09-18T11:45:06.844Z,3.00
2017-09-18T11:47:36.105Z,4.10
2017-09-18T11:50:07.231Z,3.50
2017-09-18T11:52:48.629Z,4.70
2017-09-18T11:55:26.597Z,3.73
2017-09-18T11:57:58.751Z,3.57
2017-09-18T12:00:26.376Z,7.27
2017-09-18T12:02:57.742Z,4.40
2017-09-18T12:05:26.183Z,7.87
2017-09-18T12:11:14.920Z,4.53
2017-09-18T12:13:44.242Z,4.77
2017-09-18T12:16:23.279Z,4.43
2017-09-18T12:18:51.676Z,5.43
2017-09-18T12:21:22.016Z,8.20
2017-09-18T12:23:50.263Z,6.20
2017-09-18T12:26:16.537Z,5.20
2017-09-18T12:28:48.479Z,5.03
2017-09-18T12:31:14.943Z,5.20
2017-09-18T12:33:41.199Z,4.40
2017-09-18T12:36:08.834Z,3.97
2017-09-18T12:38:35.947Z,3.73
2017-09-18T12:41:02.327Z,8.80
2017-09-18T12:43:28.596Z,5.23
2017-09-18T12:45:55.088Z,4.33
2017-09-18T12:48:21.445Z,5.50
2017-09-18T12:50:47.819Z,6.30
2017-09-18T12:53:15.709Z,5.30
2017-09-18T12:55:42.834Z,4.70
2017-09-18T12:58:09.240Z,4.90
2017-09-18T13:00:35.777Z,5.37
2017-09-18T13:03:02.105Z,4.87
2017-09-18T13:05:30.414Z,4.83
2017-09-18T13:07:59.929Z,6.50
2017-09-18T13:10:26.320Z,5.77
2017-09-18T13:12:52.716Z,6.03
2017-09-18T13:15:19.379Z,4.60
2017-09-18T13:17:45.838Z,5.00
2017-09-18T13:20:12.221Z,4.13
2017-09-18T13:22:38.818Z,3.70
2017-09-18T13:25:05.270Z,3.87
2017-09-18T13:27:31.742Z,3.13
2017-09-18T13:29:58.129Z,3.37
2017-09-18T13:32:25.430Z,2.70
2017-09-18T13:34:51.763Z,3.40
2017-09-18T13:37:18.094Z,3.43
2017-09-18T13:39:44.498Z,3.60
2017-09-18T13:42:11.611Z,3.30
2017-09-18T13:44:37.995Z,2.53
2017-09-18T13:47:04.346Z,2.87
2017-09-18T13:49:30.642Z,2.80
2017-09-18T13:51:58.790Z,3.03
2017-09-18T13:54:25.143Z,2.53
2017-09-18T13:56:51.699Z,2.70
2017-09-18T13:59:18.117Z,2.90
2017-09-18T14:01:44.427Z,2.40
2017-09-18T14:04:11.003Z,2.73
2017-09-18T14:06:37.527Z,2.40
2017-09-18T14:09:03.862Z,2.20
2017-09-18T14:11:30.912Z,2.90
2017-09-18T14:13:58.066Z,2.47
2017-09-18T14:16:24.347Z,2.23
2017-09-18T14:18:51.377Z,1.70
2017-09-18T14:21:17.731Z,2.00
2017-09-18T14:23:44.045Z,2.13
2017-09-18T14:26:11.404Z,2.07
2017-09-18T14:28:37.767Z,1.90
2017-09-18T14:31:04.216Z,1.90
2017-09-18T14:33:30.751Z,2.80
2017-09-18T14:35:57.823Z,1.47
2017-09-18T14:38:24.200Z,1.87
2017-09-18T14:40:50.712Z,2.00
2017-09-18T14:43:18.669Z,5.20
2017-09-18T14:45:45.275Z,1.50
2017-09-18T14:48:11.606Z,1.80
2017-09-18T14:50:37.955Z,6.33
2017-09-18T14:53:04.438Z,2.20
2017-09-18T14:55:32.597Z,2.70
2017-09-18T14:58:04.023Z,1.53
2017-09-18T15:00:34.771Z,1.87
2017-09-18T15:03:04.212Z,2.10
2017-09-18T15:05:34.532Z,2.03
2017-09-18T15:08:01.465Z,2.07
2017-09-18T15:10:28.887Z,1.90
2017-09-18T15:12:56.857Z,4.20
2017-09-18T15:15:24.960Z,2.13
2017-09-18T15:17:54.022Z,2.53
2017-09-18T15:20:20.280Z,2.37
2017-09-18T15:22:46.704Z,2.20
2017-09-18T15:25:13.047Z,2.30
2017-09-18T15:27:39.403Z,2.20
2017-09-18T15:30:06.403Z,2.50
2017-09-18T15:32:33.734Z,2.27
2017-09-18T15:35:00.174Z,2.90
2017-09-18T15:37:26.593Z,2.63
2017-09-18T15:39:53.608Z,2.10
2017-09-18T15:42:19.828Z,2.47
2017-09-18T15:44:46.106Z,2.43
2017-09-18T15:47:12.378Z,1.83
2017-09-18T15:49:38.580Z,2.30
2017-09-18T15:52:05.624Z,2.97
2017-09-18T15:54:32.653Z,2.30
2017-09-18T15:56:59.007Z,3.97
2017-09-18T15:59:26.152Z,2.40
2017-09-18T16:01:52.492Z,2.37
2017-09-18T16:04:19.792Z,4.93
2017-09-18T16:06:46.171Z,3.47
2017-09-18T16:09:12.488Z,1.90
2017-09-18T16:11:38.892Z,1.60
2017-09-18T16:14:05.300Z,2.10
2017-09-18T16:16:31.596Z,2.20
2017-09-18T16:18:58.270Z,1.70
2017-09-18T16:21:24.528Z,1.80
2017-09-18T16:23:50.809Z,1.97
2017-09-18T16:26:17.784Z,1.83
2017-09-18T16:28:44.049Z,12.53
2017-09-18T16:31:10.312Z,4.10
2017-09-18T16:33:37.310Z,2.23
2017-09-18T16:36:03.586Z,2.63
2017-09-18T16:38:30.687Z,2.20
2017-09-18T16:40:56.993Z,2.73
2017-09-18T16:43:23.372Z,2.50
2017-09-18T16:45:49.787Z,2.17
2017-09-18T16:48:16.002Z,2.53
2017-09-18T16:50:42.320Z,2.30
2017-09-18T16:53:08.632Z,8.70
2017-09-18T16:55:35.752Z,2.70
2017-09-18T16:58:02.159Z,2.90
2017-09-18T17:00:28.389Z,3.87
2017-09-18T17:02:54.668Z,4.80
2017-09-18T17:05:21.672Z,2.97
2017-09-18T17:07:48.434Z,2.53
2017-09-18T17:10:15.616Z,1.40
2017-09-18T17:12:42.606Z,1.33
2017-09-18T17:15:08.941Z,1.17
2017-09-18T17:17:35.991Z,1.00
2017-09-18T17:20:02.308Z,1.00
2017-09-18T17:22:28.607Z,1.20
2017-09-18T17:24:55.622Z,1.00
2017-09-18T17:27:21.842Z,1.10
2017-09-18T17:29:48.085Z,2.03
2017-09-18T17:32:14.398Z,1.13
2017-09-18T17:34:40.694Z,1.03
2017-09-18T17:37:06.961Z,1.30
2017-09-18T17:39:33.234Z,1.37
2017-09-18T17:41:59.550Z,1.20
2017-09-18T17:44:26.677Z,2.00
2017-09-18T17:46:53.203Z,1.30
2017-09-18T17:49:19.523Z,1.63
2017-09-18T17:51:45.768Z,1.13
2017-09-18T17:54:12.105Z,2.13
2017-09-18T17:56:38.412Z,1.37
2017-09-18T17:59:04.740Z,1.27
2017-09-18T18:01:31.016Z,1.53
2017-09-18T18:03:57.993Z,1.73
2017-09-18T18:06:24.198Z,1.13
2017-09-18T18:08:52.179Z,1.50
2017-09-18T18:11:19.202Z,1.20
2017-09-18T18:13:45.496Z,1.70
2017-09-18T18:16:11.917Z,2.07
2017-09-18T18:18:38.388Z,1.97
2017-09-18T18:21:06.648Z,1.53
2017-09-18T18:23:32.989Z,2.57
2017-09-18T18:25:59.364Z,4.80
2017-09-18T18:28:26.501Z,4.00
2017-09-18T18:30:53.536Z,2.80
2017-09-18T18:33:19.933Z,4.87
2017-09-18T18:35:46.252Z,12.70
2017-09-18T18:38:12.705Z,5.50
2017-09-18T18:40:39.010Z,4.83
2017-09-18T18:43:05.331Z,2.47
2017-09-18T18:45:32.458Z,3.50
2017-09-18T18:47:59.590Z,2.47
2017-09-18T18:50:25.932Z,3.73
2017-09-18T18:52:52.303Z,3.20
2017-09-18T18:55:18.649Z,3.57
2017-09-18T18:57:45.113Z,4.20
2017-09-18T19:00:11.363Z,3.70
2017-09-18T19:02:37.705Z,6.20
2017-09-18T19:05:04.828Z,4.37
2017-09-18T19:07:31.196Z,4.07
2017-09-18T19:09:58.336Z,4.90
2017-09-18T19:12:26.012Z,5.17
2017-09-18T19:14:52.420Z,5.27
2017-09-18T19:17:18.731Z,5.63
2017-09-18T19:19:45.107Z,6.87
2017-09-18T19:22:11.466Z,7.30
2017-09-18T19:24:37.729Z,7.93
2017-09-18T19:27:04.095Z,6.50
2017-09-18T19:29:30.407Z,8.47
2017-09-18T19:31:56.703Z,8.37
2017-09-18T19:34:23.789Z,8.00
2017-09-18T19:36:50.809Z,10.13
2017-09-18T19:39:17.231Z,10.63
2017-09-18T19:41:43.488Z,10.20
2017-09-18T19:44:10.520Z,9.17
2017-09-18T19:46:37.488Z,15.03
2017-09-18T19:49:03.756Z,13.73
2017-09-18T19:51:30.158Z,17.93
2017-09-18T19:53:57.259Z,8.27
2017-09-18T19:56:23.628Z,8.10
2017-09-18T19:58:50.036Z,7.33
2017-09-18T20:01:16.376Z,8.07
2017-09-18T20:03:42.698Z,13.93
2017-09-18T20:06:08.958Z,10.03
2017-09-18T20:08:35.362Z,9.23
2017-09-18T20:11:01.714Z,11.53
2017-09-18T20:13:28.086Z,8.20
2017-09-18T20:15:54.484Z,10.23
2017-09-18T20:18:20.905Z,12.30
2017-09-18T20:20:47.290Z,12.33
2017-09-18T20:23:13.622Z,8.93
2017-09-18T20:25:39.934Z,8.77
2017-09-18T20:28:06.969Z,7.50
2017-09-18T20:30:33.989Z,11.33
2017-09-18T20:33:00.275Z,10.50
2017-09-18T20:35:26.536Z,7.53
2017-09-18T20:37:52.861Z,7.40
2017-09-18T20:40:19.173Z,9.33
2017-09-18T20:42:45.394Z,24.47
2017-09-18T20:45:12.436Z,15.93
2017-09-18T20:47:39.417Z,19.20
2017-09-18T20:50:05.627Z,15.63
2017-09-18T20:52:32.244Z,16.87
2017-09-18T20:54:59.228Z,22.23
2017-09-18T20:57:25.486Z,19.23
2017-09-18T20:59:51.816Z,19.87
2017-09-18T21:02:18.392Z,19.60
2017-09-18T21:04:44.860Z,29.27
2017-09-18T21:07:11.226Z,22.63
2017-09-18T21:09:37.597Z,32.33
2017-09-18T21:12:03.884Z,30.33
2017-09-18T21:14:30.166Z,31.33
2017-09-18T21:16:56.418Z,35.37
2017-09-18T21:19:22.704Z,32.83
2017-09-18T21:21:49.741Z,30.27
2017-09-18T21:24:17.659Z,42.13
2017-09-18T21:26:43.927Z,57.73
2017-09-18T21:29:10.265Z,51.07
2017-09-18T21:31:36.522Z,43.50
2017-09-18T21:34:03.472Z,56.73
2017-09-18T21:36:29.789Z,49.03
2017-09-18T21:38:56.871Z,51.50
2017-09-18T21:41:23.276Z,55.50
2017-09-18T21:43:50.297Z,46.97
2017-09-18T21:46:16.531Z,49.30
2017-09-18T21:48:42.793Z,45.17
2017-09-18T21:51:09.190Z,37.80
2017-09-18T21:53:35.530Z,40.73
2017-09-18T21:56:01.909Z,53.10
2017-09-18T21:58:28.094Z,50.40
2017-09-18T22:00:54.517Z,37.90
2017-09-18T22:03:20.785Z,61.73
2017-09-18T22:05:47.055Z,55.63
2017-09-18T22:08:13.344Z,47.67
2017-09-18T22:10:39.639Z,42.80
2017-09-18T22:13:05.872Z,54.73
2017-09-18T22:15:32.372Z,47.70
2017-09-18T22:17:58.954Z,42.53
2017-09-18T22:20:25.215Z,39.57
2017-09-18T22:22:51.540Z,62.13
2017-09-18T22:25:17.798Z,61.03
2017-09-18T22:27:44.098Z,58.23
2017-09-18T22:30:10.429Z,42.07
2017-09-18T22:32:36.682Z,41.20
2017-09-18T22:35:02.984Z,55.10
2017-09-18T22:37:29.220Z,62.97
2017-09-18T22:39:55.533Z,41.60
2017-09-18T22:42:22.634Z,47.00
2017-09-18T22:44:48.906Z,44.30
2017-09-18T22:47:16.011Z,35.30
2017-09-18T22:49:42.281Z,44.07
2017-09-18T22:52:08.587Z,49.37
2017-09-18T22:54:34.815Z,49.70
2017-09-18T22:57:01.085Z,63.70
2017-09-18T22:59:28.151Z,56.17
2017-09-18T23:01:54.422Z,50.10
2017-09-18T23:04:20.711Z,50.80
2017-09-18T23:06:47.077Z,40.20
2017-09-18T23:09:13.334Z,41.00
2017-09-18T23:11:39.740Z,32.90
2017-09-18T23:14:06.000Z,36.83
2017-09-18T23:16:32.306Z,36.03
2017-09-18T23:18:58.635Z,27.07
2017-09-18T23:21:24.883Z,35.77
2017-09-18T23:23:51.121Z,35.90
2017-09-18T23:26:17.416Z,39.20
2017-09-18T23:28:43.719Z,31.43
2017-09-18T23:31:09.971Z,47.07
2017-09-18T23:33:36.253Z,36.70
2017-09-18T23:36:03.344Z,35.57
2017-09-18T23:38:29.644Z,31.40
2017-09-18T23:40:55.968Z,37.40
2017-09-18T23:43:22.949Z,34.67
2017-09-18T23:45:49.243Z,27.07
2017-09-18T23:48:16.303Z,31.60
2017-09-18T23:50:42.601Z,35.60
2017-09-18T23:53:08.978Z,32.07
2017-09-18T23:55:35.370Z,26.43
2017-09-18T23:58:01.742Z,30.93
